sensor_id;sensor_type;location;lat;lon;timestamp;temperature;humidity
49124;DHT22;48506;48.202;16.274;2023-06-26T00:01:28;18.60;96.10
49124;DHT22;48506;48.202;16.274;2023-06-26T00:03:57;18.60;96.20
49124;DHT22;48506;48.202;16.274;2023-06-26T00:06:25;18.60;96.20
49124;DHT22;48506;48.202;16.274;2023-06-26T00:08:55;18.40;96.30
49124;DHT22;48506;48.202;16.274;2023-06-26T00:11:22;18.40;96.40
49124;DHT22;48506;48.202;16.274;2023-06-26T00:13:48;18.40;96.30
49124;DHT22;48506;48.202;16.274;2023-06-26T00:16:14;18.40;96.40
49124;DHT22;48506;48.202;16.274;2023-06-26T00:18:40;18.40;96.30
49124;DHT22;48506;48.202;16.274;2023-06-26T00:21:06;18.40;96.50
49124;DHT22;48506;48.202;16.274;2023-06-26T00:23:32;18.40;96.40
49124;DHT22;48506;48.202;16.274;2023-06-26T00:26:03;18.40;96.40
49124;DHT22;48506;48.202;16.274;2023-06-26T00:28:29;18.40;96.50
49124;DHT22;48506;48.202;16.274;2023-06-26T00:30:54;18.40;96.50
49124;DHT22;48506;48.202;16.274;2023-06-26T00:33:20;18.30;96.60
49124;DHT22;48506;48.202;16.274;2023-06-26T00:35:46;18.30;96.80
49124;DHT22;48506;48.202;16.274;2023-06-26T00:38:12;18.30;96.80
49124;DHT22;48506;48.202;16.274;2023-06-26T00:40:38;18.20;97.00
49124;DHT22;48506;48.202;16.274;2023-06-26T00:43:04;18.20;97.20
49124;DHT22;48506;48.202;16.274;2023-06-26T00:45:30;18.10;97.20
49124;DHT22;48506;48.202;16.274;2023-06-26T00:47:56;18.00;97.30
49124;DHT22;48506;48.202;16.274;2023-06-26T00:50:22;18.00;97.40
49124;DHT22;48506;48.202;16.274;2023-06-26T00:52:48;17.90;97.60
49124;DHT22;48506;48.202;16.274;2023-06-26T00:55:14;17.90;97.50
49124;DHT22;48506;48.202;16.274;2023-06-26T00:57:40;17.80;97.70
49124;DHT22;48506;48.202;16.274;2023-06-26T01:00:07;17.80;97.80
49124;DHT22;48506;48.202;16.274;2023-06-26T01:02:33;17.70;97.80
49124;DHT22;48506;48.202;16.274;2023-06-26T01:05:03;17.70;97.90
49124;DHT22;48506;48.202;16.274;2023-06-26T01:07:36;17.70;97.90
49124;DHT22;48506;48.202;16.274;2023-06-26T01:10:07;17.70;97.90
49124;DHT22;48506;48.202;16.274;2023-06-26T01:12:33;17.80;98.00
49124;DHT22;48506;48.202;16.274;2023-06-26T01:15:00;17.70;97.90
49124;DHT22;48506;48.202;16.274;2023-06-26T01:17:27;17.70;97.90
49124;DHT22;48506;48.202;16.274;2023-06-26T01:20:01;17.70;97.90
49124;DHT22;48506;48.202;16.274;2023-06-26T01:22:42;17.80;98.10
49124;DHT22;48506;48.202;16.274;2023-06-26T01:25:18;17.70;98.10
49124;DHT22;48506;48.202;16.274;2023-06-26T01:27:48;17.70;98.20
49124;DHT22;48506;48.202;16.274;2023-06-26T01:30:16;17.80;98.20
49124;DHT22;48506;48.202;16.274;2023-06-26T01:32:44;17.80;98.20
49124;DHT22;48506;48.202;16.274;2023-06-26T01:35:11;17.70;98.20
49124;DHT22;48506;48.202;16.274;2023-06-26T01:37:38;17.70;98.30
49124;DHT22;48506;48.202;16.274;2023-06-26T01:40:04;17.60;98.40
49124;DHT22;48506;48.202;16.274;2023-06-26T01:42:32;17.60;98.40
49124;DHT22;48506;48.202;16.274;2023-06-26T01:45:15;17.60;98.40
49124;DHT22;48506;48.202;16.274;2023-06-26T01:47:49;17.60;98.40
49124;DHT22;48506;48.202;16.274;2023-06-26T01:50:25;17.50;98.50
49124;DHT22;48506;48.202;16.274;2023-06-26T01:53:09;17.50;98.50
49124;DHT22;48506;48.202;16.274;2023-06-26T01:55:52;17.50;98.60
49124;DHT22;48506;48.202;16.274;2023-06-26T01:58:22;17.40;98.70
49124;DHT22;48506;48.202;16.274;2023-06-26T02:00:49;17.40;98.80
49124;DHT22;48506;48.202;16.274;2023-06-26T02:03:15;17.40;98.90
49124;DHT22;48506;48.202;16.274;2023-06-26T02:05:41;17.40;98.90
49124;DHT22;48506;48.202;16.274;2023-06-26T02:08:08;17.40;99.10
49124;DHT22;48506;48.202;16.274;2023-06-26T02:10:34;17.40;99.00
49124;DHT22;48506;48.202;16.274;2023-06-26T02:13:01;17.40;99.10
49124;DHT22;48506;48.202;16.274;2023-06-26T02:15:27;17.40;99.20
49124;DHT22;48506;48.202;16.274;2023-06-26T02:17:53;17.40;98.90
49124;DHT22;48506;48.202;16.274;2023-06-26T02:20:19;17.40;98.90
49124;DHT22;48506;48.202;16.274;2023-06-26T02:22:45;17.30;99.00
49124;DHT22;48506;48.202;16.274;2023-06-26T02:25:11;17.30;99.00
49124;DHT22;48506;48.202;16.274;2023-06-26T02:27:38;17.20;99.10
49124;DHT22;48506;48.202;16.274;2023-06-26T02:30:05;17.30;99.30
49124;DHT22;48506;48.202;16.274;2023-06-26T02:32:31;17.30;99.30
49124;DHT22;48506;48.202;16.274;2023-06-26T02:34:57;17.30;99.30
49124;DHT22;48506;48.202;16.274;2023-06-26T02:37:23;17.40;99.20
49124;DHT22;48506;48.202;16.274;2023-06-26T02:39:49;17.40;99.10
49124;DHT22;48506;48.202;16.274;2023-06-26T02:42:15;17.40;99.10
49124;DHT22;48506;48.202;16.274;2023-06-26T02:44:41;17.30;99.10
49124;DHT22;48506;48.202;16.274;2023-06-26T02:47:07;17.30;99.20
49124;DHT22;48506;48.202;16.274;2023-06-26T02:49:33;17.20;99.30
49124;DHT22;48506;48.202;16.274;2023-06-26T02:51:58;17.20;99.30
49124;DHT22;48506;48.202;16.274;2023-06-26T02:54:24;17.20;99.30
49124;DHT22;48506;48.202;16.274;2023-06-26T02:56:50;17.10;99.40
49124;DHT22;48506;48.202;16.274;2023-06-26T02:59:16;17.00;99.40
49124;DHT22;48506;48.202;16.274;2023-06-26T03:01:42;17.00;99.50
49124;DHT22;48506;48.202;16.274;2023-06-26T03:04:08;17.00;99.60
49124;DHT22;48506;48.202;16.274;2023-06-26T03:06:34;16.90;99.60
49124;DHT22;48506;48.202;16.274;2023-06-26T03:09:00;16.90;99.70
49124;DHT22;48506;48.202;16.274;2023-06-26T03:11:26;16.90;99.80
49124;DHT22;48506;48.202;16.274;2023-06-26T03:13:52;16.90;99.80
49124;DHT22;48506;48.202;16.274;2023-06-26T03:16:19;16.90;99.70
49124;DHT22;48506;48.202;16.274;2023-06-26T03:18:45;16.80;99.80
49124;DHT22;48506;48.202;16.274;2023-06-26T03:21:11;16.80;99.80
49124;DHT22;48506;48.202;16.274;2023-06-26T03:23:37;16.80;99.90
49124;DHT22;48506;48.202;16.274;2023-06-26T03:26:03;16.80;99.90
49124;DHT22;48506;48.202;16.274;2023-06-26T03:28:28;16.80;99.90
49124;DHT22;48506;48.202;16.274;2023-06-26T03:30:57;16.70;99.90
49124;DHT22;48506;48.202;16.274;2023-06-26T03:33:23;16.80;99.90
49124;DHT22;48506;48.202;16.274;2023-06-26T03:35:49;16.80;99.90
49124;DHT22;48506;48.202;16.274;2023-06-26T03:38:15;16.90;99.90
49124;DHT22;48506;48.202;16.274;2023-06-26T03:40:41;16.80;99.90
49124;DHT22;48506;48.202;16.274;2023-06-26T03:43:07;16.90;99.90
49124;DHT22;48506;48.202;16.274;2023-06-26T03:45:33;16.90;99.90
49124;DHT22;48506;48.202;16.274;2023-06-26T03:47:58;16.90;99.90
49124;DHT22;48506;48.202;16.274;2023-06-26T03:50:24;17.00;99.90
49124;DHT22;48506;48.202;16.274;2023-06-26T03:52:51;17.10;99.90
49124;DHT22;48506;48.202;16.274;2023-06-26T03:55:18;17.10;99.90
49124;DHT22;48506;48.202;16.274;2023-06-26T03:57:44;17.20;99.90
49124;DHT22;48506;48.202;16.274;2023-06-26T04:00:11;17.20;99.90
49124;DHT22;48506;48.202;16.274;2023-06-26T04:02:38;17.20;99.90
49124;DHT22;48506;48.202;16.274;2023-06-26T04:05:04;17.20;99.90
49124;DHT22;48506;48.202;16.274;2023-06-26T04:07:31;17.30;99.90
49124;DHT22;48506;48.202;16.274;2023-06-26T04:09:57;17.30;99.90
49124;DHT22;48506;48.202;16.274;2023-06-26T04:12:23;17.30;99.90
49124;DHT22;48506;48.202;16.274;2023-06-26T04:14:49;17.40;99.80
49124;DHT22;48506;48.202;16.274;2023-06-26T04:17:15;17.40;99.80
49124;DHT22;48506;48.202;16.274;2023-06-26T04:19:41;17.60;99.90
49124;DHT22;48506;48.202;16.274;2023-06-26T04:22:07;17.60;99.80
49124;DHT22;48506;48.202;16.274;2023-06-26T04:24:33;17.60;99.90
49124;DHT22;48506;48.202;16.274;2023-06-26T04:26:59;17.60;99.80
49124;DHT22;48506;48.202;16.274;2023-06-26T04:29:26;17.60;99.90
49124;DHT22;48506;48.202;16.274;2023-06-26T04:31:53;17.70;99.70
49124;DHT22;48506;48.202;16.274;2023-06-26T04:34:27;17.80;99.70
49124;DHT22;48506;48.202;16.274;2023-06-26T04:36:54;17.90;99.60
49124;DHT22;48506;48.202;16.274;2023-06-26T04:39:20;18.00;99.50
49124;DHT22;48506;48.202;16.274;2023-06-26T04:41:46;18.20;99.50
49124;DHT22;48506;48.202;16.274;2023-06-26T04:44:12;18.30;99.30
49124;DHT22;48506;48.202;16.274;2023-06-26T04:46:39;18.40;99.20
49124;DHT22;48506;48.202;16.274;2023-06-26T04:49:10;18.50;99.20
49124;DHT22;48506;48.202;16.274;2023-06-26T04:51:36;18.80;99.20
49124;DHT22;48506;48.202;16.274;2023-06-26T04:54:09;18.90;98.90
49124;DHT22;48506;48.202;16.274;2023-06-26T04:56:36;19.00;98.60
49124;DHT22;48506;48.202;16.274;2023-06-26T04:59:03;19.10;98.60
49124;DHT22;48506;48.202;16.274;2023-06-26T05:01:29;19.20;98.50
49124;DHT22;48506;48.202;16.274;2023-06-26T05:03:56;19.30;98.20
49124;DHT22;48506;48.202;16.274;2023-06-26T05:06:22;19.40;98.10
49124;DHT22;48506;48.202;16.274;2023-06-26T05:08:48;19.50;98.00
49124;DHT22;48506;48.202;16.274;2023-06-26T05:11:14;19.60;97.80
49124;DHT22;48506;48.202;16.274;2023-06-26T05:13:40;19.80;97.80
49124;DHT22;48506;48.202;16.274;2023-06-26T05:16:07;19.90;97.80
49124;DHT22;48506;48.202;16.274;2023-06-26T05:18:35;20.00;97.70
49124;DHT22;48506;48.202;16.274;2023-06-26T05:21:01;20.20;97.50
49124;DHT22;48506;48.202;16.274;2023-06-26T05:23:31;20.30;97.40
49124;DHT22;48506;48.202;16.274;2023-06-26T05:25:58;20.50;97.30
49124;DHT22;48506;48.202;16.274;2023-06-26T05:28:24;20.70;97.10
49124;DHT22;48506;48.202;16.274;2023-06-26T05:30:54;20.80;96.60
49124;DHT22;48506;48.202;16.274;2023-06-26T05:33:23;20.80;96.50
49124;DHT22;48506;48.202;16.274;2023-06-26T05:35:52;20.90;96.50
49124;DHT22;48506;48.202;16.274;2023-06-26T05:38:19;21.00;96.40
49124;DHT22;48506;48.202;16.274;2023-06-26T05:40:45;21.20;96.40
49124;DHT22;48506;48.202;16.274;2023-06-26T05:43:11;21.30;96.00
49124;DHT22;48506;48.202;16.274;2023-06-26T05:45:37;21.50;95.70
49124;DHT22;48506;48.202;16.274;2023-06-26T05:48:03;21.60;95.80
49124;DHT22;48506;48.202;16.274;2023-06-26T05:50:29;21.70;95.50
49124;DHT22;48506;48.202;16.274;2023-06-26T05:52:55;21.80;95.30
49124;DHT22;48506;48.202;16.274;2023-06-26T05:55:22;21.90;95.10
49124;DHT22;48506;48.202;16.274;2023-06-26T05:57:50;22.10;95.00
49124;DHT22;48506;48.202;16.274;2023-06-26T06:00:17;22.10;94.60
49124;DHT22;48506;48.202;16.274;2023-06-26T06:02:43;22.20;94.70
49124;DHT22;48506;48.202;16.274;2023-06-26T06:05:10;22.20;94.50
49124;DHT22;48506;48.202;16.274;2023-06-26T06:07:36;22.30;94.80
49124;DHT22;48506;48.202;16.274;2023-06-26T06:10:03;22.50;94.80
49124;DHT22;48506;48.202;16.274;2023-06-26T06:12:30;22.60;94.80
49124;DHT22;48506;48.202;16.274;2023-06-26T06:14:56;22.70;94.70
49124;DHT22;48506;48.202;16.274;2023-06-26T06:17:22;22.90;94.50
49124;DHT22;48506;48.202;16.274;2023-06-26T06:19:48;22.90;93.90
49124;DHT22;48506;48.202;16.274;2023-06-26T06:22:15;23.00;93.70
49124;DHT22;48506;48.202;16.274;2023-06-26T06:24:42;23.00;93.40
49124;DHT22;48506;48.202;16.274;2023-06-26T06:27:08;23.10;93.90
49124;DHT22;48506;48.202;16.274;2023-06-26T06:29:33;23.20;94.10
49124;DHT22;48506;48.202;16.274;2023-06-26T06:31:59;23.40;93.80
49124;DHT22;48506;48.202;16.274;2023-06-26T06:34:25;23.50;93.00
49124;DHT22;48506;48.202;16.274;2023-06-26T06:36:51;23.50;92.70
49124;DHT22;48506;48.202;16.274;2023-06-26T06:39:17;23.60;92.90
49124;DHT22;48506;48.202;16.274;2023-06-26T06:41:43;23.70;92.80
49124;DHT22;48506;48.202;16.274;2023-06-26T06:44:09;23.90;92.90
49124;DHT22;48506;48.202;16.274;2023-06-26T06:46:35;24.00;92.20
49124;DHT22;48506;48.202;16.274;2023-06-26T06:49:01;24.10;92.20
49124;DHT22;48506;48.202;16.274;2023-06-26T06:51:27;24.20;92.00
49124;DHT22;48506;48.202;16.274;2023-06-26T06:53:54;24.40;91.70
49124;DHT22;48506;48.202;16.274;2023-06-26T06:56:20;24.50;91.20
49124;DHT22;48506;48.202;16.274;2023-06-26T06:58:46;24.50;91.20
49124;DHT22;48506;48.202;16.274;2023-06-26T07:01:13;24.60;91.10
49124;DHT22;48506;48.202;16.274;2023-06-26T07:03:39;24.80;91.10
49124;DHT22;48506;48.202;16.274;2023-06-26T07:06:05;24.90;90.70
49124;DHT22;48506;48.202;16.274;2023-06-26T07:08:31;24.80;90.10
49124;DHT22;48506;48.202;16.274;2023-06-26T07:10:57;24.90;90.20
49124;DHT22;48506;48.202;16.274;2023-06-26T07:13:23;25.00;90.10
49124;DHT22;48506;48.202;16.274;2023-06-26T07:15:49;25.10;90.50
49124;DHT22;48506;48.202;16.274;2023-06-26T07:18:15;25.40;90.00
49124;DHT22;48506;48.202;16.274;2023-06-26T07:20:41;25.50;89.80
49124;DHT22;48506;48.202;16.274;2023-06-26T07:23:08;25.50;88.60
49124;DHT22;48506;48.202;16.274;2023-06-26T07:25:35;25.60;88.50
49124;DHT22;48506;48.202;16.274;2023-06-26T07:28:01;25.60;87.50
49124;DHT22;48506;48.202;16.274;2023-06-26T07:30:27;25.60;87.60
49124;DHT22;48506;48.202;16.274;2023-06-26T07:32:53;25.70;86.40
49124;DHT22;48506;48.202;16.274;2023-06-26T07:35:19;25.70;87.50
49124;DHT22;48506;48.202;16.274;2023-06-26T07:37:45;25.80;88.20
49124;DHT22;48506;48.202;16.274;2023-06-26T07:40:11;26.00;87.80
49124;DHT22;48506;48.202;16.274;2023-06-26T07:42:38;26.20;87.90
49124;DHT22;48506;48.202;16.274;2023-06-26T07:45:06;26.40;88.20
49124;DHT22;48506;48.202;16.274;2023-06-26T07:47:37;26.40;84.70
49124;DHT22;48506;48.202;16.274;2023-06-26T07:50:04;26.20;85.90
49124;DHT22;48506;48.202;16.274;2023-06-26T07:52:31;26.40;86.00
49124;DHT22;48506;48.202;16.274;2023-06-26T07:54:57;26.50;85.40
49124;DHT22;48506;48.202;16.274;2023-06-26T07:57:24;26.40;85.00
49124;DHT22;48506;48.202;16.274;2023-06-26T07:59:50;26.40;83.80
49124;DHT22;48506;48.202;16.274;2023-06-26T08:02:16;26.40;84.60
49124;DHT22;48506;48.202;16.274;2023-06-26T08:04:44;26.60;85.50
49124;DHT22;48506;48.202;16.274;2023-06-26T08:07:10;26.70;84.40
49124;DHT22;48506;48.202;16.274;2023-06-26T08:09:37;26.80;83.60
49124;DHT22;48506;48.202;16.274;2023-06-26T08:12:03;26.90;83.10
49124;DHT22;48506;48.202;16.274;2023-06-26T08:14:29;27.00;80.10
49124;DHT22;48506;48.202;16.274;2023-06-26T08:16:56;26.90;80.60
49124;DHT22;48506;48.202;16.274;2023-06-26T08:19:22;26.90;80.50
49124;DHT22;48506;48.202;16.274;2023-06-26T08:21:48;26.90;80.30
49124;DHT22;48506;48.202;16.274;2023-06-26T08:24:14;27.00;80.90
49124;DHT22;48506;48.202;16.274;2023-06-26T08:26:48;27.30;82.00
49124;DHT22;48506;48.202;16.274;2023-06-26T08:29:14;27.60;81.50
49124;DHT22;48506;48.202;16.274;2023-06-26T08:31:41;27.30;79.00
49124;DHT22;48506;48.202;16.274;2023-06-26T08:34:08;27.40;81.30
49124;DHT22;48506;48.202;16.274;2023-06-26T08:36:34;27.50;81.00
49124;DHT22;48506;48.202;16.274;2023-06-26T08:39:00;27.40;77.20
49124;DHT22;48506;48.202;16.274;2023-06-26T08:41:26;27.40;80.20
49124;DHT22;48506;48.202;16.274;2023-06-26T08:43:52;27.60;79.70
49124;DHT22;48506;48.202;16.274;2023-06-26T08:46:19;27.80;79.40
49124;DHT22;48506;48.202;16.274;2023-06-26T08:48:49;27.90;79.00
49124;DHT22;48506;48.202;16.274;2023-06-26T08:51:23;28.00;79.60
49124;DHT22;48506;48.202;16.274;2023-06-26T08:53:58;28.20;79.00
49124;DHT22;48506;48.202;16.274;2023-06-26T08:56:32;28.40;77.10
49124;DHT22;48506;48.202;16.274;2023-06-26T08:59:01;28.30;76.60
49124;DHT22;48506;48.202;16.274;2023-06-26T09:01:27;28.40;78.10
49124;DHT22;48506;48.202;16.274;2023-06-26T09:03:53;28.60;78.60
49124;DHT22;48506;48.202;16.274;2023-06-26T09:06:19;28.80;77.40
49124;DHT22;48506;48.202;16.274;2023-06-26T09:08:46;29.00;77.10
49124;DHT22;48506;48.202;16.274;2023-06-26T09:11:12;29.20;76.00
49124;DHT22;48506;48.202;16.274;2023-06-26T09:13:39;29.20;75.60
49124;DHT22;48506;48.202;16.274;2023-06-26T09:16:08;29.20;73.80
49124;DHT22;48506;48.202;16.274;2023-06-26T09:18:35;29.20;74.20
49124;DHT22;48506;48.202;16.274;2023-06-26T09:21:07;29.30;73.20
49124;DHT22;48506;48.202;16.274;2023-06-26T09:23:34;29.30;74.50
49124;DHT22;48506;48.202;16.274;2023-06-26T09:26:05;29.40;73.00
49124;DHT22;48506;48.202;16.274;2023-06-26T09:28:35;29.40;71.30
49124;DHT22;48506;48.202;16.274;2023-06-26T09:31:05;29.30;71.70
49124;DHT22;48506;48.202;16.274;2023-06-26T09:33:36;29.40;74.40
49124;DHT22;48506;48.202;16.274;2023-06-26T09:36:18;29.20;72.10
49124;DHT22;48506;48.202;16.274;2023-06-26T09:38:44;29.10;73.30
49124;DHT22;48506;48.202;16.274;2023-06-26T09:41:10;29.20;72.90
49124;DHT22;48506;48.202;16.274;2023-06-26T09:43:49;29.40;72.20
49124;DHT22;48506;48.202;16.274;2023-06-26T09:46:25;29.60;73.80
49124;DHT22;48506;48.202;16.274;2023-06-26T09:49:08;29.70;73.30
49124;DHT22;48506;48.202;16.274;2023-06-26T09:51:38;29.90;73.40
49124;DHT22;48506;48.202;16.274;2023-06-26T09:54:05;30.10;71.10
49124;DHT22;48506;48.202;16.274;2023-06-26T09:56:33;30.10;71.60
49124;DHT22;48506;48.202;16.274;2023-06-26T09:59:03;30.20;72.50
49124;DHT22;48506;48.202;16.274;2023-06-26T10:01:31;30.30;68.30
49124;DHT22;48506;48.202;16.274;2023-06-26T10:03:58;30.10;69.90
49124;DHT22;48506;48.202;16.274;2023-06-26T10:06:35;30.00;70.30
49124;DHT22;48506;48.202;16.274;2023-06-26T10:09:03;30.00;70.50
49124;DHT22;48506;48.202;16.274;2023-06-26T10:11:41;30.00;70.40
49124;DHT22;48506;48.202;16.274;2023-06-26T10:14:11;30.10;68.40
49124;DHT22;48506;48.202;16.274;2023-06-26T10:16:40;30.20;69.80
49124;DHT22;48506;48.202;16.274;2023-06-26T10:19:08;30.20;69.90
49124;DHT22;48506;48.202;16.274;2023-06-26T10:21:34;30.40;69.60
49124;DHT22;48506;48.202;16.274;2023-06-26T10:24:03;30.20;67.20
49124;DHT22;48506;48.202;16.274;2023-06-26T10:26:33;30.10;68.50
49124;DHT22;48506;48.202;16.274;2023-06-26T10:29:02;30.10;69.80
49124;DHT22;48506;48.202;16.274;2023-06-26T10:31:29;30.20;69.20
49124;DHT22;48506;48.202;16.274;2023-06-26T10:33:56;30.40;68.50
49124;DHT22;48506;48.202;16.274;2023-06-26T10:36:31;30.70;70.00
49124;DHT22;48506;48.202;16.274;2023-06-26T10:39:01;30.80;66.60
49124;DHT22;48506;48.202;16.274;2023-06-26T10:41:44;30.90;68.10
49124;DHT22;48506;48.202;16.274;2023-06-26T10:44:20;31.00;66.90
49124;DHT22;48506;48.202;16.274;2023-06-26T10:46:51;31.30;68.10
49124;DHT22;48506;48.202;16.274;2023-06-26T10:49:20;31.30;65.90
49124;DHT22;48506;48.202;16.274;2023-06-26T10:51:50;31.30;66.90
49124;DHT22;48506;48.202;16.274;2023-06-26T10:54:17;31.20;65.90
49124;DHT22;48506;48.202;16.274;2023-06-26T10:56:46;31.20;65.70
49124;DHT22;48506;48.202;16.274;2023-06-26T10:59:25;31.20;67.20
49124;DHT22;48506;48.202;16.274;2023-06-26T11:01:57;31.30;67.20
49124;DHT22;48506;48.202;16.274;2023-06-26T11:04:44;31.30;66.40
49124;DHT22;48506;48.202;16.274;2023-06-26T11:07:19;31.30;63.20
49124;DHT22;48506;48.202;16.274;2023-06-26T11:10:11;31.30;66.80
49124;DHT22;48506;48.202;16.274;2023-06-26T11:12:43;31.40;65.70
49124;DHT22;48506;48.202;16.274;2023-06-26T11:15:15;31.20;67.20
49124;DHT22;48506;48.202;16.274;2023-06-26T11:17:42;31.30;66.30
49124;DHT22;48506;48.202;16.274;2023-06-26T11:20:13;31.30;65.20
49124;DHT22;48506;48.202;16.274;2023-06-26T11:22:41;31.30;66.20
49124;DHT22;48506;48.202;16.274;2023-06-26T11:25:09;31.30;64.60
49124;DHT22;48506;48.202;16.274;2023-06-26T11:27:41;31.40;65.00
49124;DHT22;48506;48.202;16.274;2023-06-26T11:30:22;31.60;65.10
49124;DHT22;48506;48.202;16.274;2023-06-26T11:33:08;31.70;65.00
49124;DHT22;48506;48.202;16.274;2023-06-26T11:35:35;31.70;67.10
49124;DHT22;48506;48.202;16.274;2023-06-26T11:38:02;31.80;64.70
49124;DHT22;48506;48.202;16.274;2023-06-26T11:40:33;31.80;65.00
49124;DHT22;48506;48.202;16.274;2023-06-26T11:43:03;31.80;64.30
49124;DHT22;48506;48.202;16.274;2023-06-26T11:45:29;32.00;64.30
49124;DHT22;48506;48.202;16.274;2023-06-26T11:47:56;32.20;64.60
49124;DHT22;48506;48.202;16.274;2023-06-26T11:50:23;32.20;64.30
49124;DHT22;48506;48.202;16.274;2023-06-26T11:52:56;32.10;63.20
49124;DHT22;48506;48.202;16.274;2023-06-26T11:55:24;32.20;63.30
49124;DHT22;48506;48.202;16.274;2023-06-26T11:57:52;32.40;64.10
49124;DHT22;48506;48.202;16.274;2023-06-26T12:00:19;32.50;63.30
49124;DHT22;48506;48.202;16.274;2023-06-26T12:02:46;32.40;62.40
49124;DHT22;48506;48.202;16.274;2023-06-26T12:05:16;32.10;62.20
49124;DHT22;48506;48.202;16.274;2023-06-26T12:07:47;31.80;63.70
49124;DHT22;48506;48.202;16.274;2023-06-26T12:10:14;31.80;64.80
49124;DHT22;48506;48.202;16.274;2023-06-26T12:12:42;31.90;64.90
49124;DHT22;48506;48.202;16.274;2023-06-26T12:15:12;32.10;63.20
49124;DHT22;48506;48.202;16.274;2023-06-26T12:17:38;32.30;64.60
49124;DHT22;48506;48.202;16.274;2023-06-26T12:20:21;32.50;63.40
49124;DHT22;48506;48.202;16.274;2023-06-26T12:22:47;32.40;61.50
49124;DHT22;48506;48.202;16.274;2023-06-26T12:25:15;32.40;62.30
49124;DHT22;48506;48.202;16.274;2023-06-26T12:27:44;32.20;62.00
49124;DHT22;48506;48.202;16.274;2023-06-26T12:30:11;32.10;62.90
49124;DHT22;48506;48.202;16.274;2023-06-26T12:32:39;31.90;64.40
49124;DHT22;48506;48.202;16.274;2023-06-26T12:35:05;31.90;62.90
49124;DHT22;48506;48.202;16.274;2023-06-26T12:37:37;31.80;63.50
49124;DHT22;48506;48.202;16.274;2023-06-26T12:40:17;32.00;63.20
49124;DHT22;48506;48.202;16.274;2023-06-26T12:42:53;32.10;64.40
49124;DHT22;48506;48.202;16.274;2023-06-26T12:45:19;32.20;63.80
49124;DHT22;48506;48.202;16.274;2023-06-26T12:47:45;32.30;63.80
49124;DHT22;48506;48.202;16.274;2023-06-26T12:50:12;32.40;64.80
49124;DHT22;48506;48.202;16.274;2023-06-26T12:52:38;32.40;64.10
49124;DHT22;48506;48.202;16.274;2023-06-26T12:55:05;32.30;63.00
49124;DHT22;48506;48.202;16.274;2023-06-26T12:57:31;32.20;63.60
49124;DHT22;48506;48.202;16.274;2023-06-26T12:59:57;32.20;64.00
49124;DHT22;48506;48.202;16.274;2023-06-26T13:02:25;32.20;62.90
49124;DHT22;48506;48.202;16.274;2023-06-26T13:04:52;32.20;63.70
49124;DHT22;48506;48.202;16.274;2023-06-26T13:07:18;32.30;63.40
49124;DHT22;48506;48.202;16.274;2023-06-26T13:09:44;32.20;64.00
49124;DHT22;48506;48.202;16.274;2023-06-26T13:12:12;32.10;63.20
49124;DHT22;48506;48.202;16.274;2023-06-26T13:14:38;32.00;64.60
49124;DHT22;48506;48.202;16.274;2023-06-26T13:17:04;32.00;64.20
49124;DHT22;48506;48.202;16.274;2023-06-26T13:19:30;32.00;63.30
49124;DHT22;48506;48.202;16.274;2023-06-26T13:21:57;32.00;63.50
49124;DHT22;48506;48.202;16.274;2023-06-26T13:24:23;31.80;63.40
49124;DHT22;48506;48.202;16.274;2023-06-26T13:26:50;31.80;64.30
49124;DHT22;48506;48.202;16.274;2023-06-26T13:29:16;31.90;63.50
49124;DHT22;48506;48.202;16.274;2023-06-26T13:31:41;31.80;64.30
49124;DHT22;48506;48.202;16.274;2023-06-26T13:34:08;31.70;63.70
49124;DHT22;48506;48.202;16.274;2023-06-26T13:36:34;31.50;63.20
49124;DHT22;48506;48.202;16.274;2023-06-26T13:39:00;31.40;63.10
49124;DHT22;48506;48.202;16.274;2023-06-26T13:41:27;31.40;64.30
49124;DHT22;48506;48.202;16.274;2023-06-26T13:43:54;31.30;64.70
49124;DHT22;48506;48.202;16.274;2023-06-26T13:46:20;31.20;64.20
49124;DHT22;48506;48.202;16.274;2023-06-26T13:48:46;31.30;65.00
49124;DHT22;48506;48.202;16.274;2023-06-26T13:51:12;31.30;65.70
49124;DHT22;48506;48.202;16.274;2023-06-26T13:53:38;31.30;66.50
49124;DHT22;48506;48.202;16.274;2023-06-26T13:56:04;31.30;65.60
49124;DHT22;48506;48.202;16.274;2023-06-26T13:58:30;31.40;65.80
49124;DHT22;48506;48.202;16.274;2023-06-26T14:00:58;31.40;65.80
49124;DHT22;48506;48.202;16.274;2023-06-26T14:03:26;31.40;64.20
49124;DHT22;48506;48.202;16.274;2023-06-26T14:05:54;31.20;67.50
49124;DHT22;48506;48.202;16.274;2023-06-26T14:08:20;31.00;69.20
49124;DHT22;48506;48.202;16.274;2023-06-26T14:10:46;30.90;67.10
49124;DHT22;48506;48.202;16.274;2023-06-26T14:13:12;31.00;68.20
49124;DHT22;48506;48.202;16.274;2023-06-26T14:15:41;31.10;66.60
49124;DHT22;48506;48.202;16.274;2023-06-26T14:18:08;30.90;66.50
49124;DHT22;48506;48.202;16.274;2023-06-26T14:20:34;30.70;66.00
49124;DHT22;48506;48.202;16.274;2023-06-26T14:23:02;30.70;68.30
49124;DHT22;48506;48.202;16.274;2023-06-26T14:25:28;30.70;69.60
49124;DHT22;48506;48.202;16.274;2023-06-26T14:27:55;30.70;67.50
49124;DHT22;48506;48.202;16.274;2023-06-26T14:30:22;30.80;67.10
49124;DHT22;48506;48.202;16.274;2023-06-26T14:32:47;30.60;67.10
49124;DHT22;48506;48.202;16.274;2023-06-26T14:35:14;30.40;68.00
49124;DHT22;48506;48.202;16.274;2023-06-26T14:37:40;30.30;68.40
49124;DHT22;48506;48.202;16.274;2023-06-26T14:40:07;30.40;68.10
49124;DHT22;48506;48.202;16.274;2023-06-26T14:42:34;30.50;69.30
49124;DHT22;48506;48.202;16.274;2023-06-26T14:44:59;30.60;68.30
49124;DHT22;48506;48.202;16.274;2023-06-26T14:47:25;30.70;68.30
49124;DHT22;48506;48.202;16.274;2023-06-26T14:49:51;30.60;69.70
49124;DHT22;48506;48.202;16.274;2023-06-26T14:52:17;30.60;66.40
49124;DHT22;48506;48.202;16.274;2023-06-26T14:54:44;30.50;66.60
49124;DHT22;48506;48.202;16.274;2023-06-26T14:57:13;30.40;65.00
49124;DHT22;48506;48.202;16.274;2023-06-26T14:59:39;30.40;66.00
49124;DHT22;48506;48.202;16.274;2023-06-26T15:02:05;30.30;67.70
49124;DHT22;48506;48.202;16.274;2023-06-26T15:04:32;30.30;67.70
49124;DHT22;48506;48.202;16.274;2023-06-26T15:06:58;30.40;65.60
49124;DHT22;48506;48.202;16.274;2023-06-26T15:09:24;30.30;66.60
49124;DHT22;48506;48.202;16.274;2023-06-26T15:11:51;30.30;67.40
49124;DHT22;48506;48.202;16.274;2023-06-26T15:14:17;30.40;69.20
49124;DHT22;48506;48.202;16.274;2023-06-26T15:16:43;30.50;66.80
49124;DHT22;48506;48.202;16.274;2023-06-26T15:19:09;30.50;66.50